Palchem 1 — 9HA2097 — position and weather

sailwx.info

Track history (hours):
 
Tides and Currents Weather Stations Pressure Air Temp Water Temp Dewpoint Dewpoint Depression Visibility Wind Speed Wind Dir Waves Ship Positions

Palchem 1

Last reported at 2014-Sep-03 19:29 UTC. Time now 2014-Sep-19 15:50 UTC.
Position N 28°59' E 032°49'.
Warning: this ship's position is 15 days out of date.

Length 143 m; draft 7 m.

Type: Ship (hazmat cat B). MMSI: 249955000.

Date/timePositionNaut miles runAvg speedWind from/ knotsBaromVisibWave heightAir tempDewpointWater temp
2014-Sep-03 19:29N 28°59' E 032°49'  
2014-Aug-27 22:28N 35°45' E 028°21'1411.5
2014-Aug-27 21:15N 35°45' E 028°03'811.4
2014-Aug-27 20:33N 35°45' E 027°54'1510.7
2014-Aug-27 19:08N 35°49' E 027°35'712.4
2014-Aug-27 18:33N 35°54' E 027°29'2412.0
2014-Aug-27 16:33N 36°11' E 027°08'1211.7
2014-Aug-27 15:33N 36°20' E 026°58'1211.8
2014-Aug-27 14:33N 36°28' E 026°48'1312.1
2014-Aug-27 13:26N 36°38' E 026°36'1112.3
2014-Aug-27 12:33N 36°45' E 026°27'1312.8
2014-Aug-27 11:33N 36°55' E 026°16'1212.2
2014-Aug-27 10:33N 37°05' E 026°07'1212.2
2014-Aug-27 09:33N 37°15' E 025°59'1212.3
2014-Aug-27 08:33N 37°26' E 025°51'1212.0
2014-Aug-27 07:33N 37°37' E 025°48'1211.7
2014-Aug-27 06:33N 37°49' E 025°48'2311.5
2014-Aug-27 04:33N 38°12' E 025°46'1211.8
2014-Aug-27 03:33N 38°24' E 025°45'1212.0
2014-Aug-27 02:33N 38°36' E 025°44'1211.8
2014-Aug-27 01:33N 38°48' E 025°43'1211.8
2014-Aug-27 00:33N 38°60' E 025°43'1211.7
2014-Aug-26 23:33N 39°11' E 025°42'2412.1
2014-Aug-26 21:32N 39°35' E 025°47'1311.6
2014-Aug-26 20:24N 39°46' E 025°57'138 7.2
2014-Aug-26 01:09N 40°53' E 028°35'812.2
2014-Aug-26 00:28N 40°54' E 028°46'7 1.3
2014-Aug-25 19:30N 40°56' E 028°55'27 8.9
2014-Aug-25 16:30N 41°22' E 029°04'  
Track history (hours):
 
Tides and Currents Weather Stations Pressure Air Temp Water Temp Dewpoint Dewpoint Depression Visibility Wind Speed Wind Dir Waves Ship Positions

Palchem 1

Last reported at 2014-Sep-03 19:29 UTC. Time now 2014-Sep-19 15:50 UTC.
Position N 28°59' E 032°49'.
Warning: this ship's position is 15 days out of date.

Length 143 m; draft 7 m.

Type: Ship (hazmat cat B). MMSI: 249955000.

Date/timePositionNaut miles runAvg speedWind from/ knotsBaromVisibWave heightAir tempDewpointWater temp
2014-Sep-03 19:29N 28°59' E 032°49'  
2014-Aug-27 22:28N 35°45' E 028°21'1411.5
2014-Aug-27 21:15N 35°45' E 028°03'811.4
2014-Aug-27 20:33N 35°45' E 027°54'1510.7
2014-Aug-27 19:08N 35°49' E 027°35'712.4
2014-Aug-27 18:33N 35°54' E 027°29'2412.0
2014-Aug-27 16:33N 36°11' E 027°08'1211.7
2014-Aug-27 15:33N 36°20' E 026°58'1211.8
2014-Aug-27 14:33N 36°28' E 026°48'1312.1
2014-Aug-27 13:26N 36°38' E 026°36'1112.3
2014-Aug-27 12:33N 36°45' E 026°27'1312.8
2014-Aug-27 11:33N 36°55' E 026°16'1212.2
2014-Aug-27 10:33N 37°05' E 026°07'1212.2
2014-Aug-27 09:33N 37°15' E 025°59'1212.3
2014-Aug-27 08:33N 37°26' E 025°51'1212.0
2014-Aug-27 07:33N 37°37' E 025°48'1211.7
2014-Aug-27 06:33N 37°49' E 025°48'2311.5
2014-Aug-27 04:33N 38°12' E 025°46'1211.8
2014-Aug-27 03:33N 38°24' E 025°45'1212.0
2014-Aug-27 02:33N 38°36' E 025°44'1211.8
2014-Aug-27 01:33N 38°48' E 025°43'1211.8
2014-Aug-27 00:33N 38°60' E 025°43'1211.7
2014-Aug-26 23:33N 39°11' E 025°42'2412.1
2014-Aug-26 21:32N 39°35' E 025°47'1311.6
2014-Aug-26 20:24N 39°46' E 025°57'138 7.2
2014-Aug-26 01:09N 40°53' E 028°35'812.2
2014-Aug-26 00:28N 40°54' E 028°46'7 1.3
2014-Aug-25 19:30N 40°56' E 028°55'27 8.9
2014-Aug-25 16:30N 41°22' E 029°04'  

Dump ship's entire track history